Time,TemperatureF,DewpointF,PressureIn,WindDirection,WindDirectionDegrees,WindSpeedMPH,WindSpeedGustMPH,Humidity,HourlyPrecipIn,Conditions,Clouds,dailyrainin,SolarRadiationWatts/m^2,SoftwareType,DateUTC
2013-06-09 00:22:00,63.0,46.0,-100.00,NE,56,5.0,10.0,53,0.00,,,0.00,1.000000,,2013-06-09 07:22:00,
2013-06-09 00:32:00,63.0,46.0,-100.00,NE,56,5.0,10.0,53,0.00,,,0.00,1.000000,,2013-06-09 07:32:00,
2013-06-09 00:42:00,63.0,46.0,-100.00,NE,56,5.0,10.0,53,0.00,,,0.00,1.000000,,2013-06-09 07:42:00,
2013-06-09 00:52:00,63.0,46.0,-100.00,NE,56,5.0,10.0,53,0.00,,,0.00,1.000000,,2013-06-09 07:52:00,
2013-06-09 01:22:00,62.0,45.0,-100.00,NNE,32,6.0,9.0,53,0.00,,,0.00,1.000000,,2013-06-09 08:22:00,
2013-06-09 01:32:00,62.0,45.0,-100.00,NNE,32,6.0,9.0,53,0.00,,,0.00,1.000000,,2013-06-09 08:32:00,
2013-06-09 01:42:00,62.0,45.0,-100.00,NNE,32,6.0,9.0,53,0.00,,,0.00,1.000000,,2013-06-09 08:42:00,
2013-06-09 01:53:00,62.0,45.0,-100.00,NNE,32,6.0,9.0,53,0.00,,,0.00,1.000000,,2013-06-09 08:53:00,
2013-06-09 02:22:00,60.0,45.0,-100.00,NE,49,6.0,13.0,58,0.00,,,-99.99,1.000000,,2013-06-09 09:22:00,
2013-06-09 02:33:00,60.0,45.0,-100.00,NE,49,6.0,13.0,58,0.00,,,-99.99,1.000000,,2013-06-09 09:33:00,
2013-06-09 02:43:00,60.0,45.0,-100.00,NE,49,6.0,13.0,58,0.00,,,-99.99,1.000000,,2013-06-09 09:43:00,
2013-06-09 02:52:00,60.0,45.0,-100.00,NE,49,6.0,13.0,58,0.00,,,-99.99,1.000000,,2013-06-09 09:52:00,
2013-06-09 03:23:00,59.0,44.0,-100.00,NE,35,6.0,9.0,58,0.00,,,0.00,1.000000,,2013-06-09 10:23:00,
2013-06-09 03:32:00,59.0,44.0,-100.00,NE,35,6.0,9.0,58,0.00,,,0.00,1.000000,,2013-06-09 10:32:00,
2013-06-09 03:43:00,59.0,44.0,-100.00,NE,35,6.0,9.0,58,0.00,,,0.00,1.000000,,2013-06-09 10:43:00,
2013-06-09 03:52:00,59.0,44.0,-100.00,NE,35,6.0,9.0,58,0.00,,,0.00,1.000000,,2013-06-09 10:52:00,
2013-06-09 04:22:00,58.0,43.0,-100.00,NE,41,6.0,10.0,57,0.00,,,0.00,1.000000,,2013-06-09 11:22:00,
2013-06-09 04:32:00,58.0,43.0,-100.00,NE,41,6.0,10.0,57,0.00,,,0.00,1.000000,,2013-06-09 11:32:00,
2013-06-09 04:42:00,58.0,43.0,-100.00,NE,41,6.0,10.0,57,0.00,,,0.00,1.000000,,2013-06-09 11:42:00,
2013-06-09 04:52:00,58.0,43.0,-100.00,NE,41,6.0,10.0,57,0.00,,,0.00,1.000000,,2013-06-09 11:52:00,
2013-06-09 05:22:00,57.0,43.0,-100.00,NE,45,7.0,10.0,60,0.00,,,0.00,1.000000,,2013-06-09 12:22:00,
2013-06-09 05:32:00,57.0,43.0,-100.00,NE,45,7.0,10.0,60,0.00,,,0.00,1.000000,,2013-06-09 12:32:00,
2013-06-09 05:42:00,57.0,43.0,-100.00,NE,45,7.0,10.0,60,0.00,,,0.00,1.000000,,2013-06-09 12:42:00,
2013-06-09 05:52:00,57.0,43.0,-100.00,NE,45,7.0,10.0,60,0.00,,,0.00,1.000000,,2013-06-09 12:52:00,
2013-06-09 06:22:00,53.0,43.0,-100.00,ENE,65,5.0,11.0,70,0.00,,,0.00,5.000000,,2013-06-09 13:22:00,
2013-06-09 06:32:00,53.0,43.0,-100.00,ENE,65,5.0,11.0,70,0.00,,,0.00,5.000000,,2013-06-09 13:32:00,
2013-06-09 06:42:00,53.0,43.0,-100.00,ENE,65,5.0,11.0,70,0.00,,,0.00,5.000000,,2013-06-09 13:42:00,
2013-06-09 06:52:00,53.0,43.0,-100.00,ENE,65,5.0,11.0,70,0.00,,,0.00,5.000000,,2013-06-09 13:52:00,
2013-06-09 07:22:00,58.0,45.0,-100.00,ENE,73,5.0,11.0,62,0.00,,,0.00,113.000000,,2013-06-09 14:22:00,
2013-06-09 07:32:00,58.0,45.0,-100.00,ENE,73,5.0,11.0,62,0.00,,,0.00,113.000000,,2013-06-09 14:32:00,
2013-06-09 07:42:00,58.0,45.0,-100.00,ENE,73,5.0,11.0,62,0.00,,,0.00,113.000000,,2013-06-09 14:42:00,
2013-06-09 07:52:00,58.0,45.0,-100.00,ENE,73,5.0,11.0,62,0.00,,,0.00,113.000000,,2013-06-09 14:52:00,
2013-06-09 08:22:00,63.0,45.0,-100.00,NE,46,8.0,12.0,52,0.00,,,0.00,292.000000,,2013-06-09 15:22:00,
2013-06-09 08:33:00,63.0,45.0,-100.00,NE,46,8.0,12.0,52,0.00,,,0.00,292.000000,,2013-06-09 15:33:00,
2013-06-09 08:43:00,63.0,45.0,-100.00,NE,46,8.0,12.0,52,0.00,,,0.00,292.000000,,2013-06-09 15:43:00,
2013-06-09 08:53:00,63.0,45.0,-100.00,NE,46,8.0,12.0,52,0.00,,,0.00,292.000000,,2013-06-09 15:53:00,
2013-06-09 10:22:00,73.0,45.0,-100.00,NE,44,6.0,14.0,37,-99.99,,,0.00,666.000000,,2013-06-09 17:22:00,
2013-06-09 10:32:00,73.0,45.0,-100.00,NE,44,6.0,14.0,37,-99.99,,,0.00,666.000000,,2013-06-09 17:32:00,
2013-06-09 10:42:00,73.0,45.0,-100.00,NE,44,6.0,14.0,37,-99.99,,,0.00,666.000000,,2013-06-09 17:42:00,
2013-06-09 10:52:00,73.0,45.0,-100.00,NE,44,6.0,14.0,37,-99.99,,,0.00,666.000000,,2013-06-09 17:52:00,
2013-06-09 11:21:00,78.0,41.0,-100.00,ENE,61,4.0,11.0,27,0.00,,,0.00,820.000000,,2013-06-09 18:21:00,
2013-06-09 11:32:00,78.0,41.0,-100.00,ENE,61,4.0,11.0,27,0.00,,,0.00,820.000000,,2013-06-09 18:32:00,
2013-06-09 11:42:00,78.0,41.0,-100.00,ENE,61,4.0,11.0,27,0.00,,,0.00,820.000000,,2013-06-09 18:42:00,
2013-06-09 11:52:00,78.0,41.0,-100.00,ENE,61,4.0,11.0,27,0.00,,,0.00,820.000000,,2013-06-09 18:52:00,
2013-06-09 12:22:00,82.0,45.0,-100.00,North,349,5.0,12.0,27,0.00,,,0.00,936.000000,,2013-06-09 19:22:00,
2013-06-09 12:32:00,82.0,45.0,-100.00,North,349,5.0,12.0,27,0.00,,,0.00,936.000000,,2013-06-09 19:32:00,
2013-06-09 12:42:00,82.0,45.0,-100.00,North,349,5.0,12.0,27,0.00,,,0.00,936.000000,,2013-06-09 19:42:00,
2013-06-09 12:52:00,82.0,45.0,-100.00,North,349,5.0,12.0,27,0.00,,,0.00,936.000000,,2013-06-09 19:52:00,
2013-06-09 13:22:00,84.0,45.0,-100.00,WNW,289,6.0,11.0,26,0.00,,,0.00,1005.000000,,2013-06-09 20:22:00,
2013-06-09 13:32:00,84.0,45.0,-100.00,WNW,289,6.0,11.0,26,0.00,,,0.00,1005.000000,,2013-06-09 20:32:00,
2013-06-09 13:42:00,84.0,45.0,-100.00,WNW,289,6.0,11.0,26,0.00,,,0.00,1005.000000,,2013-06-09 20:42:00,
2013-06-09 13:52:00,84.0,45.0,-100.00,WNW,289,6.0,11.0,26,0.00,,,0.00,1005.000000,,2013-06-09 20:52:00,
2013-06-09 14:22:00,86.0,45.0,-100.00,WNW,285,8.0,13.0,24,0.00,,,0.00,1017.000000,,2013-06-09 21:22:00,
2013-06-09 14:33:00,86.0,45.0,-100.00,WNW,285,8.0,13.0,24,0.00,,,0.00,1017.000000,,2013-06-09 21:33:00,
2013-06-09 14:43:00,86.0,45.0,-100.00,WNW,285,8.0,13.0,24,0.00,,,0.00,1017.000000,,2013-06-09 21:43:00,
2013-06-09 14:53:00,86.0,45.0,-100.00,WNW,285,8.0,13.0,24,0.00,,,0.00,1017.000000,,2013-06-09 21:53:00,
2013-06-09 15:23:00,85.0,45.0,-100.00,WNW,292,9.0,16.0,25,0.00,,,0.00,986.000000,,2013-06-09 22:23:00,
2013-06-09 15:33:00,85.0,45.0,-100.00,WNW,292,9.0,16.0,25,0.00,,,0.00,986.000000,,2013-06-09 22:33:00,
2013-06-09 15:42:00,85.0,45.0,-100.00,WNW,292,9.0,16.0,25,0.00,,,0.00,986.000000,,2013-06-09 22:42:00,
2013-06-09 15:52:00,85.0,45.0,-100.00,WNW,292,9.0,16.0,25,0.00,,,0.00,986.000000,,2013-06-09 22:52:00,
2013-06-09 16:22:00,86.0,41.0,-100.00,WNW,288,10.0,18.0,21,0.00,,,0.00,882.000000,,2013-06-09 23:22:00,
2013-06-09 16:32:00,86.0,41.0,-100.00,WNW,288,10.0,18.0,21,0.00,,,0.00,882.000000,,2013-06-09 23:32:00,
2013-06-09 16:42:00,86.0,41.0,-100.00,WNW,288,10.0,18.0,21,0.00,,,0.00,882.000000,,2013-06-09 23:42:00,
2013-06-09 16:52:00,86.0,41.0,-100.00,WNW,288,10.0,18.0,21,0.00,,,0.00,882.000000,,2013-06-09 23:52:00,
2013-06-09 17:12:00,84.0,37.0,-100.00,WNW,286,11.0,18.0,19,0.00,,,0.00,769.000000,,2013-06-10 00:12:00,
2013-06-09 17:22:00,84.0,37.0,-100.00,WNW,286,11.0,18.0,19,0.00,,,0.00,769.000000,,2013-06-10 00:22:00,
2013-06-09 17:32:00,84.0,37.0,-100.00,WNW,286,11.0,18.0,19,0.00,,,0.00,769.000000,,2013-06-10 00:32:00,
2013-06-09 17:42:00,84.0,37.0,-100.00,WNW,286,11.0,18.0,19,0.00,,,0.00,769.000000,,2013-06-10 00:42:00,
2013-06-09 17:52:00,84.0,37.0,-100.00,WNW,286,11.0,18.0,19,0.00,,,0.00,769.000000,,2013-06-10 00:52:00,
2013-06-09 18:22:00,82.0,38.0,-100.00,WNW,303,12.0,20.0,21,0.00,,,0.00,599.000000,,2013-06-10 01:22:00,
2013-06-09 18:32:00,82.0,38.0,-100.00,WNW,303,12.0,20.0,21,0.00,,,0.00,599.000000,,2013-06-10 01:32:00,
2013-06-09 18:42:00,82.0,38.0,-100.00,WNW,303,12.0,20.0,21,0.00,,,0.00,599.000000,,2013-06-10 01:42:00,
2013-06-09 18:52:00,82.0,38.0,-100.00,WNW,303,12.0,20.0,21,0.00,,,0.00,599.000000,,2013-06-10 01:52:00,
2013-06-09 19:22:00,81.0,41.0,-100.00,WNW,302,9.0,18.0,24,0.00,,,-99.99,408.000000,,2013-06-10 02:22:00,
2013-06-09 19:32:00,81.0,41.0,-100.00,WNW,302,9.0,18.0,24,0.00,,,-99.99,408.000000,,2013-06-10 02:32:00,
2013-06-09 19:42:00,81.0,41.0,-100.00,WNW,302,9.0,18.0,24,0.00,,,-99.99,408.000000,,2013-06-10 02:42:00,
2013-06-09 19:52:00,81.0,41.0,-100.00,WNW,302,9.0,18.0,24,0.00,,,-99.99,408.000000,,2013-06-10 02:52:00,
2013-06-09 20:22:00,76.0,45.0,-100.00,WNW,293,8.0,14.0,33,0.00,,,0.00,215.000000,,2013-06-10 03:22:00,
2013-06-09 20:33:00,76.0,45.0,-100.00,WNW,293,8.0,14.0,33,0.00,,,0.00,215.000000,,2013-06-10 03:33:00,
2013-06-09 20:43:00,76.0,45.0,-100.00,WNW,293,8.0,14.0,33,0.00,,,0.00,215.000000,,2013-06-10 03:43:00,
2013-06-09 20:53:00,76.0,45.0,-100.00,WNW,293,8.0,14.0,33,0.00,,,0.00,215.000000,,2013-06-10 03:53:00,
2013-06-09 21:23:00,68.0,48.0,-100.00,NW,321,3.0,12.0,48,0.00,,,0.00,45.000000,,2013-06-10 04:23:00,
2013-06-09 21:33:00,68.0,48.0,-100.00,NW,321,3.0,12.0,48,0.00,,,0.00,45.000000,,2013-06-10 04:33:00,
2013-06-09 21:42:00,68.0,48.0,-100.00,NW,321,3.0,12.0,48,0.00,,,0.00,45.000000,,2013-06-10 04:42:00,
2013-06-09 21:52:00,68.0,48.0,-100.00,NW,321,3.0,12.0,48,0.00,,,0.00,45.000000,,2013-06-10 04:52:00,
2013-06-09 22:22:00,64.0,47.0,-100.00,WNW,300,4.0,9.0,55,0.00,,,0.00,1.000000,,2013-06-10 05:22:00,
2013-06-09 22:32:00,64.0,47.0,-100.00,WNW,300,4.0,9.0,55,0.00,,,0.00,1.000000,,2013-06-10 05:32:00,
2013-06-09 22:42:00,64.0,47.0,-100.00,WNW,300,4.0,9.0,55,0.00,,,0.00,1.000000,,2013-06-10 05:42:00,
2013-06-09 22:52:00,64.0,47.0,-100.00,WNW,300,4.0,9.0,55,0.00,,,0.00,1.000000,,2013-06-10 05:52:00,
2013-06-09 23:22:00,63.0,46.0,-100.00,NE,37,6.0,9.0,53,0.00,,,0.00,1.000000,,2013-06-10 06:22:00,
2013-06-09 23:32:00,63.0,46.0,-100.00,NE,37,6.0,9.0,53,0.00,,,0.00,1.000000,,2013-06-10 06:32:00,
2013-06-09 23:42:00,63.0,46.0,-100.00,NE,37,6.0,9.0,53,0.00,,,0.00,1.000000,,2013-06-10 06:42:00,
2013-06-09 23:52:00,63.0,46.0,-100.00,NE,37,6.0,9.0,53,0.00,,,0.00,1.000000,,2013-06-10 06:52:00,